createdAt,value
2018-07-20T00:03:46.428Z,23.78
2018-07-20T00:06:21.230Z,23.71
2018-07-20T00:09:14.322Z,23.65
2018-07-20T00:11:50.994Z,23.64
2018-07-20T00:14:27.522Z,23.64
2018-07-20T00:17:20.001Z,23.58
2018-07-20T00:20:01.693Z,23.59
2018-07-20T00:22:40.106Z,23.55
2018-07-20T00:25:29.065Z,23.47
2018-07-20T00:28:06.568Z,23.41
2018-07-20T00:30:42.105Z,23.34
2018-07-20T00:33:24.607Z,23.32
2018-07-20T00:36:09.352Z,23.26
2018-07-20T00:38:54.863Z,23.24
2018-07-20T00:41:42.413Z,23.20
2018-07-20T00:44:26.907Z,23.14
2018-07-20T00:47:31.930Z,23.09
2018-07-20T00:50:08.921Z,23.06
2018-07-20T00:55:35.007Z,23.00
2018-07-20T00:58:17.236Z,22.95
2018-07-20T01:00:59.724Z,22.89
2018-07-20T01:06:16.953Z,22.93
2018-07-20T01:12:27.131Z,22.92
2018-07-20T01:15:29.969Z,22.91
2018-07-20T01:18:11.237Z,22.96
2018-07-20T01:26:56.121Z,23.30
2018-07-20T01:29:37.693Z,23.31
2018-07-20T01:32:23.172Z,23.20
2018-07-20T01:41:19.589Z,23.08
2018-07-20T01:44:41.114Z,22.96
2018-07-20T01:47:26.769Z,22.82
2018-07-20T01:50:09.367Z,22.75
2018-07-20T01:53:04.268Z,22.66
2018-07-20T01:55:57.799Z,22.53
2018-07-20T01:58:38.195Z,22.44
2018-07-20T02:01:19.602Z,22.34
2018-07-20T02:04:02.226Z,22.35
2018-07-20T02:07:12.178Z,22.48
2018-07-20T02:09:54.864Z,22.60
2018-07-20T02:12:38.484Z,22.65
2018-07-20T02:18:16.349Z,22.79
2018-07-20T02:32:07.249Z,22.95
2018-07-20T02:35:04.454Z,22.93
2018-07-20T02:37:52.799Z,22.89
2018-07-20T02:40:56.131Z,22.79
2018-07-20T02:43:29.866Z,22.75
2018-07-20T02:46:13.700Z,22.74
2018-07-20T02:54:05.006Z,22.69
2018-07-20T02:57:13.993Z,22.42
2018-07-20T02:59:53.461Z,22.37
2018-07-20T03:05:09.327Z,22.34
2018-07-20T03:07:38.051Z,22.35
2018-07-20T03:10:06.745Z,22.40
2018-07-20T03:12:35.377Z,22.41
2018-07-20T03:15:03.993Z,22.43
2018-07-20T03:17:32.690Z,22.46
2018-07-20T03:20:01.319Z,22.66
2018-07-20T03:22:30.028Z,22.84
2018-07-20T03:24:59.324Z,22.99
2018-07-20T03:27:28.103Z,23.04
2018-07-20T03:29:56.852Z,23.18
2018-07-20T03:32:25.516Z,23.26
2018-07-20T03:34:54.126Z,23.56
2018-07-20T03:37:22.861Z,23.69
2018-07-20T03:39:51.483Z,23.68
2018-07-20T03:42:20.187Z,23.81
2018-07-20T03:44:49.094Z,23.98
2018-07-20T03:47:17.700Z,23.93
2018-07-20T03:49:46.522Z,23.74
2018-07-20T03:52:15.284Z,23.74
2018-07-20T03:54:43.978Z,23.75
2018-07-20T03:57:13.020Z,24.03
2018-07-20T03:59:41.649Z,24.11
2018-07-20T04:02:10.564Z,24.27
2018-07-20T04:04:39.240Z,24.29
2018-07-20T04:07:07.902Z,24.27
2018-07-20T04:09:36.641Z,24.24
2018-07-20T04:12:05.309Z,24.24
2018-07-20T04:14:33.922Z,24.19
2018-07-20T04:17:02.548Z,24.11
2018-07-20T04:19:31.172Z,23.91
2018-07-20T04:21:59.773Z,23.88
2018-07-20T04:24:28.641Z,24.01
2018-07-20T04:26:57.215Z,24.11
2018-07-20T04:29:25.925Z,24.13
2018-07-20T04:34:47.841Z,24.25
2018-07-20T04:37:16.524Z,24.11
2018-07-20T04:39:45.233Z,23.90
2018-07-20T04:42:13.982Z,23.63
2018-07-20T04:44:42.785Z,23.48
2018-07-20T04:47:12.592Z,23.38
2018-07-20T04:49:41.312Z,23.36
2018-07-20T04:52:09.933Z,23.33
2018-07-20T04:54:38.652Z,23.32
2018-07-20T04:57:07.339Z,23.33
2018-07-20T04:59:35.997Z,23.33
2018-07-20T05:02:04.833Z,23.43
2018-07-20T05:04:33.653Z,23.45
2018-07-20T05:07:02.678Z,23.51
2018-07-20T05:09:31.464Z,23.44
2018-07-20T05:12:00.231Z,23.48
2018-07-20T05:14:29.021Z,23.49
2018-07-20T05:16:57.880Z,23.59
2018-07-20T05:19:26.727Z,23.71
2018-07-20T05:21:55.781Z,23.97
2018-07-20T05:24:26.975Z,24.31
2018-07-20T05:26:59.522Z,24.47
2018-07-20T05:29:28.353Z,24.81
2018-07-20T05:34:40.776Z,25.31
2018-07-20T05:37:09.409Z,25.42
2018-07-20T05:39:38.136Z,25.50
2018-07-20T05:42:06.896Z,25.58
2018-07-20T05:44:35.633Z,25.58
2018-07-20T05:47:04.336Z,25.66
2018-07-20T05:49:33.119Z,25.88
2018-07-20T05:52:01.795Z,26.01
2018-07-20T05:54:30.607Z,26.07
2018-07-20T05:56:59.881Z,26.22
2018-07-20T05:59:28.643Z,26.35
2018-07-20T06:01:57.486Z,26.43
2018-07-20T06:04:26.188Z,26.40
2018-07-20T06:06:54.892Z,26.33
2018-07-20T06:09:23.579Z,26.31
2018-07-20T06:11:52.293Z,26.31
2018-07-20T06:14:21.380Z,26.55
2018-07-20T06:16:50.231Z,26.87
2018-07-20T06:19:19.066Z,27.10
2018-07-20T06:21:48.370Z,27.41
2018-07-20T06:24:17.432Z,27.49
2018-07-20T06:26:46.810Z,27.74
2018-07-20T06:29:15.994Z,27.96
2018-07-20T06:31:44.696Z,28.24
2018-07-20T06:34:13.417Z,28.59
2018-07-20T06:36:42.116Z,28.72
2018-07-20T06:39:12.387Z,28.85
2018-07-20T06:41:41.613Z,28.89
2018-07-20T06:44:10.564Z,29.12
2018-07-20T06:46:39.288Z,29.54
2018-07-20T06:49:16.385Z,29.92
2018-07-20T06:51:55.629Z,29.97
2018-07-20T06:54:24.732Z,29.97
2018-07-20T06:56:54.306Z,29.79
2018-07-20T06:59:25.146Z,29.91
2018-07-20T07:01:54.298Z,29.87
2018-07-20T07:04:29.214Z,29.84
2018-07-20T07:06:59.340Z,29.70
2018-07-20T07:09:28.877Z,29.59
2018-07-20T07:12:01.234Z,29.45
2018-07-20T07:14:39.407Z,29.25
2018-07-20T07:17:17.861Z,29.17
2018-07-20T07:19:46.926Z,29.14
2018-07-20T07:22:21.629Z,29.14
2018-07-20T07:25:05.108Z,29.16
2018-07-20T07:27:49.485Z,29.17
2018-07-20T07:30:32.548Z,29.36
2018-07-20T07:33:04.594Z,29.33
2018-07-20T07:35:56.090Z,29.20
2018-07-20T07:38:35.970Z,29.41
2018-07-20T07:41:21.533Z,29.68
2018-07-20T07:43:56.846Z,29.90
2018-07-20T07:46:47.410Z,29.89
2018-07-20T07:49:20.678Z,29.91
2018-07-20T07:52:05.361Z,30.07
2018-07-20T07:54:58.703Z,30.22
2018-07-20T07:57:52.920Z,30.41
2018-07-20T08:00:52.906Z,30.47
2018-07-20T08:03:37.223Z,30.40
2018-07-20T08:06:06.687Z,30.70
2018-07-20T08:08:35.265Z,30.60
2018-07-20T08:11:04.227Z,30.67
2018-07-20T08:13:33.107Z,30.79
2018-07-20T08:16:03.146Z,30.88
2018-07-20T08:18:31.928Z,30.80
2018-07-20T08:21:01.786Z,30.83
2018-07-20T08:23:30.437Z,30.97
2018-07-20T08:25:59.325Z,31.10
2018-07-20T08:28:27.964Z,31.18
2018-07-20T08:30:56.760Z,31.37
2018-07-20T08:33:25.452Z,31.40
2018-07-20T08:35:54.413Z,31.43
2018-07-20T08:38:23.047Z,31.44
2018-07-20T08:40:52.922Z,31.56
2018-07-20T08:43:21.604Z,31.72
2018-07-20T08:45:50.511Z,31.62
2018-07-20T08:48:19.239Z,31.52
2018-07-20T08:50:47.895Z,31.53
2018-07-20T08:53:16.563Z,31.67
2018-07-20T08:55:45.109Z,31.67
2018-07-20T08:58:13.894Z,31.79
2018-07-20T09:00:42.633Z,31.79
2018-07-20T09:03:11.296Z,31.97
2018-07-20T09:05:39.957Z,32.08
2018-07-20T09:08:08.772Z,32.17
2018-07-20T09:10:37.581Z,32.25
2018-07-20T09:13:06.354Z,32.36
2018-07-20T09:15:35.193Z,32.48
2018-07-20T09:18:03.862Z,32.56
2018-07-20T09:20:32.615Z,32.47
2018-07-20T09:23:01.339Z,32.81
2018-07-20T09:25:29.872Z,32.89
2018-07-20T09:27:58.768Z,32.88
2018-07-20T09:30:27.524Z,33.10
2018-07-20T09:32:56.169Z,33.07
2018-07-20T09:35:24.761Z,33.09
2018-07-20T09:37:53.366Z,33.09
2018-07-20T09:40:22.006Z,33.11
2018-07-20T09:42:50.879Z,33.19
2018-07-20T09:45:19.384Z,33.27
2018-07-20T09:47:47.940Z,33.45
2018-07-20T09:50:16.600Z,33.63
2018-07-20T09:52:45.263Z,33.84
2018-07-20T09:55:13.895Z,34.11
2018-07-20T09:57:42.829Z,34.17
2018-07-20T10:00:11.456Z,34.45
2018-07-20T10:02:40.039Z,34.58
2018-07-20T10:05:08.975Z,34.72
2018-07-20T10:07:37.575Z,34.92
2018-07-20T10:10:06.269Z,35.00
2018-07-20T10:12:34.958Z,34.85
2018-07-20T10:15:03.565Z,34.85
2018-07-20T10:17:32.335Z,34.66
2018-07-20T10:20:00.932Z,34.72
2018-07-20T10:22:29.543Z,34.79
2018-07-20T10:24:58.322Z,35.06
2018-07-20T10:27:27.340Z,35.08
2018-07-20T10:30:40.309Z,35.19
2018-07-20T10:33:42.080Z,35.05
2018-07-20T10:36:10.914Z,35.03
2018-07-20T10:38:39.579Z,35.03
2018-07-20T10:41:08.539Z,34.79
2018-07-20T10:43:37.334Z,35.12
2018-07-20T10:46:06.022Z,35.29
2018-07-20T10:48:34.686Z,35.31
2018-07-20T10:51:03.219Z,35.38
2018-07-20T10:53:31.798Z,35.68
2018-07-20T10:56:00.464Z,35.78
2018-07-20T10:58:29.261Z,35.62
2018-07-20T11:00:58.028Z,35.56
2018-07-20T11:03:58.817Z,35.71
2018-07-20T11:06:27.594Z,35.57
2018-07-20T11:08:56.210Z,35.63
2018-07-20T11:11:24.872Z,35.70
2018-07-20T11:16:46.606Z,35.83
2018-07-20T11:19:15.384Z,35.78
2018-07-20T11:21:44.074Z,35.75
2018-07-20T11:24:12.955Z,35.80
2018-07-20T11:26:41.588Z,35.99
2018-07-20T11:29:10.355Z,36.37
2018-07-20T11:31:39.047Z,36.57
2018-07-20T11:34:07.827Z,36.63
2018-07-20T11:36:36.522Z,36.77
2018-07-20T11:39:07.608Z,37.28
2018-07-20T11:41:36.394Z,37.62
2018-07-20T11:44:05.350Z,37.96
2018-07-20T11:46:34.024Z,38.08
2018-07-20T11:49:02.793Z,38.23
2018-07-20T11:51:31.369Z,38.38
2018-07-20T11:53:59.986Z,38.35
2018-07-20T11:56:28.758Z,38.62
2018-07-20T11:58:57.369Z,38.93
2018-07-20T12:01:26.085Z,39.47
2018-07-20T12:03:54.667Z,40.34
2018-07-20T12:06:23.273Z,41.56
2018-07-20T12:08:52.139Z,42.53
2018-07-20T12:11:20.728Z,42.69
2018-07-20T12:13:49.726Z,43.33
2018-07-20T12:16:18.259Z,43.57
2018-07-20T12:18:46.842Z,44.26
2018-07-20T12:21:15.831Z,45.51
2018-07-20T12:23:44.472Z,46.48
2018-07-20T12:26:13.056Z,46.55
2018-07-20T12:28:41.645Z,47.35
2018-07-20T12:31:10.314Z,48.26
2018-07-20T12:33:39.026Z,48.15
2018-07-20T12:36:07.624Z,48.35
2018-07-20T12:38:36.217Z,48.10
2018-07-20T12:41:04.787Z,48.44
2018-07-20T12:43:33.456Z,49.43
2018-07-20T12:46:02.034Z,50.01
2018-07-20T12:48:30.679Z,50.81
2018-07-20T12:50:59.383Z,50.39
2018-07-20T12:53:27.982Z,50.98
2018-07-20T12:55:57.038Z,51.82
2018-07-20T12:58:25.684Z,51.96
2018-07-20T13:00:54.294Z,52.71
2018-07-20T13:03:22.955Z,53.57
2018-07-20T13:05:51.754Z,54.33
2018-07-20T13:08:20.600Z,54.63
2018-07-20T13:10:49.390Z,53.98
2018-07-20T13:13:18.149Z,52.83
2018-07-20T13:15:46.915Z,51.06
2018-07-20T13:18:15.677Z,51.22
2018-07-20T13:20:44.142Z,52.11
2018-07-20T13:23:12.987Z,52.41
2018-07-20T13:25:41.561Z,53.19
2018-07-20T13:28:10.315Z,53.43
2018-07-20T13:30:39.041Z,53.56
2018-07-20T13:33:08.687Z,53.50
2018-07-20T13:35:37.760Z,53.38
2018-07-20T13:38:07.904Z,54.17
2018-07-20T13:40:38.205Z,54.84
2018-07-20T13:43:06.990Z,54.35
2018-07-20T13:45:35.795Z,54.73
2018-07-20T13:48:04.420Z,55.40
2018-07-20T13:50:33.144Z,55.01
2018-07-20T13:53:01.862Z,54.26
2018-07-20T13:55:30.736Z,54.13
2018-07-20T13:58:00.140Z,54.44
2018-07-20T14:00:28.952Z,54.97
2018-07-20T14:02:57.592Z,54.56
2018-07-20T14:05:26.293Z,51.65
2018-07-20T14:07:55.080Z,49.10
2018-07-20T14:10:25.002Z,48.97
2018-07-20T14:12:53.813Z,50.12
2018-07-20T14:15:22.611Z,51.70
2018-07-20T14:17:51.382Z,51.97
2018-07-20T14:20:20.278Z,51.25
2018-07-20T14:22:48.965Z,51.19
2018-07-20T14:25:17.668Z,49.43
2018-07-20T14:27:46.509Z,48.70
2018-07-20T14:30:15.160Z,49.47
2018-07-20T14:32:44.005Z,50.55
2018-07-20T14:35:12.801Z,51.22
2018-07-20T14:37:41.915Z,49.21
2018-07-20T14:40:10.665Z,48.09
2018-07-20T14:42:39.401Z,47.77
2018-07-20T14:45:08.846Z,47.40
2018-07-20T14:47:37.678Z,47.32
2018-07-20T14:50:07.100Z,47.77
2018-07-20T14:52:35.923Z,48.43
2018-07-20T14:55:05.039Z,48.14
2018-07-20T14:57:33.910Z,47.88
2018-07-20T15:00:03.813Z,46.94
2018-07-20T15:02:32.433Z,45.63
2018-07-20T15:05:01.282Z,44.77
2018-07-20T15:07:30.028Z,43.85
2018-07-20T15:09:58.786Z,43.15
2018-07-20T15:12:27.626Z,42.54
2018-07-20T15:14:56.463Z,41.77
2018-07-20T15:17:25.396Z,41.59
2018-07-20T15:19:54.252Z,41.07
2018-07-20T15:22:23.018Z,40.65
2018-07-20T15:24:51.762Z,40.33
2018-07-20T15:27:20.493Z,40.06
2018-07-20T15:29:50.611Z,39.74
2018-07-20T15:32:19.431Z,39.59
2018-07-20T15:34:48.296Z,39.48
2018-07-20T15:37:16.954Z,39.16
2018-07-20T15:39:45.659Z,38.40
2018-07-20T15:42:14.559Z,37.64
2018-07-20T15:44:43.184Z,37.26
2018-07-20T15:47:11.932Z,36.69
2018-07-20T15:49:40.670Z,36.55
2018-07-20T15:54:38.348Z,36.42
2018-07-20T15:57:07.184Z,36.17
2018-07-20T15:59:35.918Z,36.14
2018-07-20T16:02:04.800Z,35.73
2018-07-20T16:04:33.463Z,35.44
2018-07-20T16:07:02.161Z,35.16
2018-07-20T16:09:30.989Z,35.09
2018-07-20T16:11:59.636Z,34.73
2018-07-20T16:14:28.381Z,34.63
2018-07-20T16:16:56.948Z,34.28
2018-07-20T16:19:25.642Z,34.02
2018-07-20T16:21:54.302Z,33.01
2018-07-20T16:24:22.961Z,32.02
2018-07-20T16:26:51.748Z,30.58
2018-07-20T16:29:20.750Z,29.35
2018-07-20T16:31:49.676Z,28.80
2018-07-20T16:34:18.382Z,28.94
2018-07-20T16:36:47.227Z,29.41
2018-07-20T16:39:16.142Z,29.87
2018-07-20T16:41:45.069Z,30.34
2018-07-20T16:44:14.315Z,30.85
2018-07-20T16:46:43.681Z,31.48
2018-07-20T16:49:12.509Z,31.99
2018-07-20T16:51:41.790Z,32.35
2018-07-20T16:54:10.540Z,32.70
2018-07-20T16:56:39.423Z,33.22
2018-07-20T16:59:08.172Z,33.03
2018-07-20T17:01:37.013Z,33.01
2018-07-20T17:04:05.953Z,33.32
2018-07-20T17:06:34.667Z,33.14
2018-07-20T17:09:04.030Z,32.82
2018-07-20T17:11:32.673Z,32.34
2018-07-20T17:14:01.367Z,32.14
2018-07-20T17:16:30.250Z,31.74
2018-07-20T17:18:58.891Z,31.61
2018-07-20T17:21:28.743Z,31.40
2018-07-20T17:23:57.614Z,31.08
2018-07-20T17:26:26.551Z,30.94
2018-07-20T17:28:55.567Z,30.53
2018-07-20T17:31:24.189Z,30.54
2018-07-20T17:33:53.956Z,30.63
2018-07-20T17:36:22.838Z,30.53
2018-07-20T17:38:51.879Z,30.51
2018-07-20T17:41:20.862Z,30.44
2018-07-20T17:43:49.789Z,30.42
2018-07-20T17:46:18.975Z,30.34
2018-07-20T17:48:47.892Z,30.28
2018-07-20T17:51:16.841Z,30.20
2018-07-20T17:53:45.599Z,30.13
2018-07-20T17:56:14.777Z,29.94
2018-07-20T17:58:43.686Z,29.82
2018-07-20T18:01:12.315Z,29.57
2018-07-20T18:03:41.167Z,29.51
2018-07-20T18:06:09.907Z,29.28
2018-07-20T18:08:38.719Z,29.05
2018-07-20T18:11:07.493Z,28.90
2018-07-20T18:13:36.259Z,28.68
2018-07-20T18:16:05.073Z,28.59
2018-07-20T18:18:33.870Z,28.60
2018-07-20T18:21:02.757Z,28.63
2018-07-20T18:23:31.539Z,28.57
2018-07-20T18:26:00.287Z,28.41
2018-07-20T18:28:29.071Z,28.08
2018-07-20T18:30:57.778Z,27.74
2018-07-20T18:33:26.546Z,27.47
2018-07-20T18:35:55.388Z,27.53
2018-07-20T18:38:24.141Z,27.56
2018-07-20T18:40:52.823Z,27.49
2018-07-20T18:43:21.618Z,27.36
2018-07-20T18:45:50.588Z,27.20
2018-07-20T18:48:19.503Z,27.10
2018-07-20T18:50:48.460Z,26.93
2018-07-20T18:53:17.455Z,26.86
2018-07-20T18:55:46.318Z,26.81
2018-07-20T18:58:15.039Z,26.84
2018-07-20T19:00:44.867Z,26.68
2018-07-20T19:03:13.759Z,26.69
2018-07-20T19:05:42.421Z,26.76
2018-07-20T19:08:11.171Z,26.87
2018-07-20T19:10:39.798Z,26.60
2018-07-20T19:13:09.506Z,26.49
2018-07-20T19:15:38.486Z,26.43
2018-07-20T19:18:07.319Z,26.59
2018-07-20T19:20:44.160Z,26.53
2018-07-20T19:23:13.114Z,27.03
2018-07-20T19:25:41.893Z,26.97
2018-07-20T19:28:10.751Z,26.88
2018-07-20T19:30:39.432Z,26.86
2018-07-20T19:33:08.260Z,26.73
2018-07-20T19:35:37.126Z,26.58
2018-07-20T19:38:06.046Z,26.56
2018-07-20T19:40:34.780Z,26.46
2018-07-20T19:43:03.551Z,26.35
2018-07-20T19:45:32.517Z,26.42
2018-07-20T19:48:01.433Z,26.29
2018-07-20T19:50:30.328Z,26.47
2018-07-20T19:52:59.182Z,26.34
2018-07-20T19:55:28.329Z,26.27
2018-07-20T19:57:57.215Z,26.33
2018-07-20T20:00:26.098Z,26.20
2018-07-20T20:02:54.948Z,26.22
2018-07-20T20:05:24.658Z,26.13
2018-07-20T20:07:53.452Z,26.13
2018-07-20T20:10:23.191Z,26.12
2018-07-20T20:12:51.988Z,26.20
2018-07-20T20:15:20.865Z,26.15
2018-07-20T20:17:50.064Z,26.10
2018-07-20T20:20:18.867Z,26.15
2018-07-20T20:22:47.502Z,26.05
2018-07-20T20:25:16.081Z,26.11
2018-07-20T20:27:44.799Z,25.97
2018-07-20T20:30:13.589Z,26.10
2018-07-20T20:32:42.350Z,26.21
2018-07-20T20:35:11.209Z,26.09
2018-07-20T20:37:39.966Z,26.15
2018-07-20T20:40:09.567Z,26.07
2018-07-20T20:42:38.339Z,26.02
2018-07-20T20:45:07.663Z,26.06
2018-07-20T20:47:36.320Z,25.95
2018-07-20T20:50:05.812Z,25.89
2018-07-20T20:52:34.718Z,25.82
2018-07-20T20:55:03.436Z,25.84
2018-07-20T20:57:32.096Z,25.95
2018-07-20T21:00:00.689Z,25.88
2018-07-20T21:02:29.412Z,25.86
2018-07-20T21:04:58.059Z,25.91
2018-07-20T21:07:26.810Z,25.90
2018-07-20T21:09:55.451Z,25.89
2018-07-20T21:12:24.152Z,25.85
2018-07-20T21:14:53.071Z,25.89
2018-07-20T21:17:21.908Z,25.89
2018-07-20T21:19:50.758Z,25.83
2018-07-20T21:22:19.488Z,25.95
2018-07-20T21:24:48.285Z,25.93
2018-07-20T21:27:16.983Z,25.89
2018-07-20T21:29:45.641Z,25.99
2018-07-20T21:32:14.568Z,25.89
2018-07-20T21:34:43.381Z,25.66
2018-07-20T21:37:12.021Z,25.66
2018-07-20T21:39:40.834Z,25.66
2018-07-20T21:42:09.439Z,25.72
2018-07-20T21:44:38.069Z,25.70
2018-07-20T21:47:07.931Z,25.69
2018-07-20T21:49:36.793Z,25.54
2018-07-20T21:52:05.467Z,25.50
2018-07-20T21:54:34.056Z,25.61
2018-07-20T21:57:02.977Z,25.57
2018-07-20T21:59:31.637Z,25.49
2018-07-20T22:02:00.251Z,25.38
2018-07-20T22:04:29.159Z,25.33
2018-07-20T22:06:57.837Z,25.04
2018-07-20T22:09:26.714Z,25.06
2018-07-20T22:11:55.381Z,25.07
2018-07-20T22:14:24.296Z,25.56
2018-07-20T22:16:52.932Z,25.84
2018-07-20T22:19:21.873Z,25.90
2018-07-20T22:21:50.616Z,26.08
2018-07-20T22:24:19.345Z,26.12
2018-07-20T22:26:48.090Z,26.15
2018-07-20T22:29:16.695Z,26.30
2018-07-20T22:31:45.446Z,26.17
2018-07-20T22:34:14.339Z,25.84
2018-07-20T22:36:43.208Z,25.76
2018-07-20T22:39:13.131Z,25.86
2018-07-20T22:41:42.042Z,25.83
2018-07-20T22:44:10.856Z,25.72
2018-07-20T22:46:39.582Z,25.70
2018-07-20T22:49:08.442Z,25.38
2018-07-20T22:51:37.150Z,25.14
2018-07-20T22:54:06.000Z,25.17
2018-07-20T22:56:34.823Z,25.41
2018-07-20T22:59:03.647Z,25.62
2018-07-20T23:01:32.335Z,25.56
2018-07-20T23:04:01.067Z,25.46
2018-07-20T23:06:29.690Z,25.26
2018-07-20T23:08:58.468Z,25.27
2018-07-20T23:11:27.243Z,25.28
2018-07-20T23:13:55.999Z,25.42
2018-07-20T23:16:24.746Z,25.21
2018-07-20T23:18:53.641Z,25.12
2018-07-20T23:21:22.488Z,25.03
2018-07-20T23:23:51.220Z,25.00
2018-07-20T23:26:19.801Z,24.86
2018-07-20T23:28:48.384Z,24.87
2018-07-20T23:31:17.072Z,24.86
2018-07-20T23:33:45.829Z,24.88
2018-07-20T23:36:14.504Z,24.86
2018-07-20T23:38:43.189Z,24.93
2018-07-20T23:41:11.911Z,24.87
2018-07-20T23:43:42.386Z,24.84
2018-07-20T23:46:11.032Z,24.69
2018-07-20T23:48:39.690Z,24.66
2018-07-20T23:51:10.825Z,24.57
2018-07-20T23:53:51.966Z,24.64
2018-07-20T23:56:20.721Z,24.50
2018-07-20T23:58:49.276Z,24.48
